Time;durP1;ratioP1;P1;durP2;ratioP2;P2;SDS_P1;SDS_P2;PMS_P1;PMS_P2;Temp;Humidity;BMP_temperature;BMP_pressure;BME280_temperature;BME280_humidity;BME280_pressure;Samples;Min_cycle;Max_cycle;Signal;HPM_P1;HPM_P2
2023/12/18 00:01:55;;;;;;;11.65;1.77;;;11.30;99.90;;;;;;4874357;29;20061;-60
2023/12/18 00:04:23;;;;;;;10.55;1.80;;;11.30;99.90;;;;;;4859338;29;20057;-61
2023/12/18 00:06:52;;;;;;;15.70;1.58;;;11.30;99.90;;;;;;4864699;29;20056;-69
2023/12/18 00:09:20;;;;;;;11.53;1.90;;;11.30;99.90;;;;;;4867319;29;20045;-71
2023/12/18 00:11:48;;;;;;;10.15;2.13;;;11.30;99.90;;;;;;4861688;29;20406;-70
2023/12/18 00:14:16;;;;;;;8.98;1.55;;;11.30;99.90;;;;;;4871874;29;20057;-69
2023/12/18 00:16:44;;;;;;;14.15;1.88;;;11.30;99.90;;;;;;4874045;29;20506;-71
2023/12/18 00:19:12;;;;;;;9.80;1.38;;;11.20;99.90;;;;;;4870508;29;20054;-65
2023/12/18 00:21:41;;;;;;;7.43;1.45;;;11.30;99.90;;;;;;4877989;29;20052;-68
2023/12/18 00:24:08;;;;;;;10.13;2.00;;;11.30;99.90;;;;;;4877391;29;20048;-67
2023/12/18 00:26:36;;;;;;;11.85;1.70;;;11.30;99.90;;;;;;4870405;29;20045;-70
2023/12/18 00:29:04;;;;;;;7.63;1.27;;;11.30;99.90;;;;;;4868678;29;20058;-71
2023/12/18 00:31:32;;;;;;;12.65;1.98;;;11.20;99.90;;;;;;4874089;29;20045;-68
2023/12/18 00:34:01;;;;;;;15.93;1.95;;;11.30;99.90;;;;;;4860285;29;20061;-71
2023/12/18 00:36:29;;;;;;;12.50;1.92;;;11.30;99.90;;;;;;4858983;29;20490;-69
2023/12/18 00:38:57;;;;;;;11.10;1.50;;;11.30;99.90;;;;;;4859489;29;20494;-61
2023/12/18 00:41:24;;;;;;;17.73;1.90;;;11.30;99.90;;;;;;4858860;29;20045;-67
2023/12/18 00:43:52;;;;;;;10.13;1.83;;;11.30;99.90;;;;;;4857285;29;20054;-69
2023/12/18 00:46:20;;;;;;;13.35;2.10;;;11.30;99.90;;;;;;4863160;29;20069;-69
2023/12/18 00:48:48;;;;;;;14.27;2.03;;;11.30;99.90;;;;;;4874122;29;20084;-62
2023/12/18 00:51:16;;;;;;;11.23;1.50;;;11.30;99.90;;;;;;4863775;29;20057;-60
2023/12/18 00:53:44;;;;;;;15.07;1.70;;;11.30;99.90;;;;;;4876655;29;20081;-60
2023/12/18 00:56:12;;;;;;;15.38;2.60;;;11.30;99.90;;;;;;4872816;29;20398;-60
2023/12/18 00:58:40;;;;;;;10.32;1.90;;;11.30;99.90;;;;;;4862959;29;20053;-60
2023/12/18 01:01:11;;;;;;;16.70;1.80;;;11.30;99.90;;;;;;4857919;29;20050;-60
2023/12/18 01:03:39;;;;;;;11.68;2.15;;;11.30;99.90;;;;;;4855149;29;20398;-63
2023/12/18 01:06:07;;;;;;;17.25;1.98;;;11.30;99.90;;;;;;4867105;29;20401;-60
2023/12/18 01:08:35;;;;;;;7.07;1.50;;;11.30;99.90;;;;;;4858870;29;20060;-60
2023/12/18 01:11:03;;;;;;;15.02;1.85;;;11.30;99.90;;;;;;4867648;29;20060;-61
2023/12/18 01:13:31;;;;;;;13.23;1.77;;;11.30;99.90;;;;;;4865906;29;20049;-65
2023/12/18 01:15:59;;;;;;;12.60;1.52;;;11.20;99.90;;;;;;4865833;29;20041;-63
2023/12/18 01:18:27;;;;;;;14.90;1.83;;;11.20;99.90;;;;;;4871620;29;20048;-68
2023/12/18 01:20:55;;;;;;;9.40;1.88;;;11.20;99.90;;;;;;4877160;29;20382;-70
2023/12/18 01:23:23;;;;;;;12.60;1.60;;;11.20;99.90;;;;;;4876150;29;20049;-69
2023/12/18 01:25:51;;;;;;;15.88;3.22;;;11.20;99.90;;;;;;4875261;29;20068;-61
2023/12/18 01:28:19;;;;;;;8.52;1.38;;;11.20;99.90;;;;;;4858220;29;20136;-69
2023/12/18 01:30:47;;;;;;;14.02;2.10;;;11.20;99.90;;;;;;4872402;29;20057;-64
2023/12/18 01:33:14;;;;;;;12.10;1.60;;;11.20;99.90;;;;;;4861158;29;20061;-64
2023/12/18 01:35:43;;;;;;;11.85;2.10;;;11.20;99.90;;;;;;4858192;29;20054;-72
2023/12/18 01:38:10;;;;;;;15.35;1.95;;;11.20;99.90;;;;;;4869161;29;20064;-61
2023/12/18 01:40:38;;;;;;;15.60;2.20;;;11.20;99.90;;;;;;4862855;29;20053;-64
2023/12/18 01:43:26;;;;;;;13.00;2.20;;;11.20;99.90;;;;;;4864381;29;20112;-60
2023/12/18 01:45:59;;;;;;;13.35;2.47;;;11.20;99.90;;;;;;4876594;29;20056;-59
2023/12/18 01:48:28;;;;;;;17.10;2.58;;;11.20;99.90;;;;;;4874174;29;20060;-59
2023/12/18 01:50:58;;;;;;;18.08;2.78;;;11.20;99.90;;;;;;4866735;29;20045;-64
2023/12/18 01:53:36;;;;;;;16.85;2.78;;;11.20;99.90;;;;;;4875910;29;20060;-64
2023/12/18 01:56:05;;;;;;;8.93;1.88;;;11.20;99.90;;;;;;4873654;29;20056;-67
2023/12/18 01:58:34;;;;;;;18.30;2.25;;;11.20;99.90;;;;;;4855610;29;20056;-61
2023/12/18 02:01:03;;;;;;;11.18;2.10;;;11.20;99.90;;;;;;4869671;29;20373;-63
2023/12/18 02:03:31;;;;;;;15.13;1.80;;;11.20;99.90;;;;;;4868787;29;20053;-60
2023/12/18 02:05:59;;;;;;;15.95;2.42;;;11.20;99.90;;;;;;4857147;29;20045;-59
2023/12/18 02:08:29;;;;;;;17.60;2.20;;;11.20;99.90;;;;;;4867840;29;20484;-61
2023/12/18 02:10:57;;;;;;;18.17;2.17;;;11.20;99.90;;;;;;4867843;29;20049;-62
2023/12/18 02:13:25;;;;;;;13.43;1.92;;;11.20;99.90;;;;;;4869731;29;20053;-59
2023/12/18 02:15:53;;;;;;;15.60;1.63;;;11.20;99.90;;;;;;4857940;29;20850;-67
2023/12/18 02:18:21;;;;;;;15.10;1.98;;;11.20;99.90;;;;;;4861185;29;20053;-63
2023/12/18 02:20:49;;;;;;;12.13;1.85;;;11.20;99.90;;;;;;4853713;29;20057;-60
2023/12/18 02:23:17;;;;;;;15.80;1.95;;;11.20;99.90;;;;;;4861397;29;20042;-64
2023/12/18 02:25:45;;;;;;;11.52;2.10;;;11.20;99.90;;;;;;4855875;29;20061;-64
2023/12/18 02:28:15;;;;;;;12.77;2.22;;;11.10;99.90;;;;;;4854520;29;20056;-60
2023/12/18 02:30:43;;;;;;;;;;;11.10;99.90;;;;;;4860486;29;20061;-61
2023/12/18 02:33:11;;;;;;;13.32;1.80;;;11.10;99.90;;;;;;4863353;29;19924;-63
2023/12/18 02:35:39;;;;;;;15.15;2.17;;;11.10;99.90;;;;;;4877379;29;20061;-64
2023/12/18 02:38:07;;;;;;;18.85;3.42;;;11.10;99.90;;;;;;4868035;29;20048;-65
2023/12/18 02:40:35;;;;;;;9.32;1.83;;;11.10;99.90;;;;;;4866524;29;20048;-63
2023/12/18 02:43:03;;;;;;;14.35;2.10;;;11.10;99.90;;;;;;4874695;29;20056;-64
2023/12/18 02:45:31;;;;;;;15.38;2.55;;;11.10;99.90;;;;;;4858698;29;20495;-61
2023/12/18 02:47:59;;;;;;;17.73;2.30;;;11.10;99.90;;;;;;4874287;29;20053;-62
2023/12/18 02:50:27;;;;;;;8.88;1.70;;;11.10;99.90;;;;;;4865459;29;20429;-61
2023/12/18 02:52:55;;;;;;;13.05;1.83;;;11.10;99.90;;;;;;4868882;29;20046;-63
2023/12/18 02:55:23;;;;;;;15.68;2.60;;;11.10;99.90;;;;;;4865059;29;20061;-62
2023/12/18 02:57:50;;;;;;;12.60;1.60;;;11.10;99.90;;;;;;4860721;29;20490;-64
2023/12/18 03:00:18;;;;;;;8.80;1.70;;;11.10;99.90;;;;;;4863755;29;20056;-63
2023/12/18 03:02:46;;;;;;;11.70;1.98;;;11.10;99.90;;;;;;4875522;29;20485;-66
2023/12/18 03:05:14;;;;;;;13.00;1.75;;;11.10;99.90;;;;;;4865117;29;20056;-63
2023/12/18 03:07:42;;;;;;;11.95;1.67;;;11.10;99.90;;;;;;4858736;29;20052;-69
2023/12/18 03:10:10;;;;;;;10.18;1.60;;;11.10;99.90;;;;;;4869479;29;20057;-63
2023/12/18 03:12:38;;;;;;;13.88;1.75;;;11.10;99.90;;;;;;4867136;29;20049;-60
2023/12/18 03:15:07;;;;;;;7.60;1.52;;;11.10;99.90;;;;;;4872658;29;20485;-61
2023/12/18 03:17:35;;;;;;;18.42;2.30;;;11.10;99.90;;;;;;4860693;29;20068;-65
2023/12/18 03:20:03;;;;;;;11.48;1.50;;;11.10;99.90;;;;;;4872689;29;20485;-61
2023/12/18 03:22:31;;;;;;;15.25;2.33;;;11.10;99.90;;;;;;4855786;29;20065;-59
2023/12/18 03:24:59;;;;;;;14.10;2.58;;;11.10;99.90;;;;;;4863921;29;20057;-62
2023/12/18 03:27:27;;;;;;;11.48;1.27;;;11.10;99.90;;;;;;4873824;29;20541;-62
2023/12/18 03:29:54;;;;;;;7.07;1.73;;;11.10;99.90;;;;;;4859392;29;20050;-61
2023/12/18 03:32:22;;;;;;;5.20;1.45;;;11.10;99.90;;;;;;4875624;29;20048;-63
2023/12/18 03:34:50;;;;;;;9.75;1.98;;;11.10;99.90;;;;;;4861830;29;20049;-62
2023/12/18 03:37:18;;;;;;;8.93;1.67;;;11.10;99.90;;;;;;4859532;29;20498;-64
2023/12/18 03:39:46;;;;;;;15.68;3.08;;;11.10;99.90;;;;;;4858480;29;20057;-61
2023/12/18 03:42:14;;;;;;;10.50;1.60;;;11.10;99.90;;;;;;4873763;29;20076;-59
2023/12/18 03:44:43;;;;;;;9.98;1.48;;;11.10;99.90;;;;;;4859409;29;20054;-63
2023/12/18 03:47:11;;;;;;;8.40;1.50;;;11.10;99.90;;;;;;4862395;29;20490;-62
2023/12/18 03:49:39;;;;;;;8.73;1.40;;;11.10;99.90;;;;;;4861100;29;20056;-62
2023/12/18 03:52:07;;;;;;;12.65;1.45;;;11.10;99.90;;;;;;4862015;29;20053;-65
2023/12/18 03:54:35;;;;;;;7.78;1.60;;;11.10;99.90;;;;;;4868542;29;20049;-66
2023/12/18 03:57:04;;;;;;;8.50;1.27;;;11.10;99.90;;;;;;4877821;29;20053;-61
2023/12/18 03:59:32;;;;;;;7.25;1.40;;;11.10;99.90;;;;;;4864391;29;20530;-61
2023/12/18 04:01:59;;;;;;;12.55;1.83;;;11.10;99.90;;;;;;4871694;29;20041;-61
2023/12/18 04:04:27;;;;;;;13.85;2.22;;;11.10;99.90;;;;;;4860998;29;20056;-61
2023/12/18 04:06:55;;;;;;;10.40;1.33;;;11.10;99.90;;;;;;4860012;29;20056;-62
2023/12/18 04:09:23;;;;;;;5.57;1.63;;;11.10;99.90;;;;;;4870381;29;20417;-59
2023/12/18 04:11:50;;;;;;;8.20;1.20;;;11.10;99.90;;;;;;4867383;29;20061;-60
2023/12/18 04:14:18;;;;;;;7.63;1.23;;;11.10;99.90;;;;;;4858109;29;20049;-60
2023/12/18 04:16:46;;;;;;;7.57;1.20;;;11.10;99.90;;;;;;4860399;29;20421;-60
2023/12/18 04:19:14;;;;;;;6.47;0.98;;;11.10;99.90;;;;;;4875342;29;20069;-60
2023/12/18 04:21:42;;;;;;;6.05;0.82;;;11.10;99.90;;;;;;4857987;29;20391;-66
2023/12/18 04:24:09;;;;;;;10.30;1.40;;;11.10;99.90;;;;;;4866623;29;20433;-61
2023/12/18 04:26:37;;;;;;;7.53;0.80;;;11.10;99.90;;;;;;4877643;29;20064;-65
2023/12/18 04:29:05;;;;;;;4.15;0.60;;;11.10;99.90;;;;;;4874310;29;20509;-71
2023/12/18 04:31:32;;;;;;;6.00;1.25;;;11.10;99.90;;;;;;4871310;29;20052;-66
2023/12/18 04:34:00;;;;;;;3.78;0.90;;;11.10;99.90;;;;;;4858659;29;20049;-61
2023/12/18 04:36:28;;;;;;;2.90;0.68;;;11.10;99.90;;;;;;4875645;29;20052;-64
2023/12/18 04:38:56;;;;;;;5.20;0.68;;;11.10;99.90;;;;;;4876065;29;20057;-64
2023/12/18 04:41:24;;;;;;;4.15;0.70;;;11.20;99.90;;;;;;4858121;29;20054;-62
2023/12/18 04:43:52;;;;;;;2.05;0.68;;;11.10;99.90;;;;;;4858835;29;20052;-65
2023/12/18 04:46:20;;;;;;;2.42;0.80;;;11.20;99.90;;;;;;4874969;29;20049;-67
2023/12/18 04:48:47;;;;;;;3.35;0.57;;;11.20;99.90;;;;;;4859301;29;20045;-71
2023/12/18 04:51:15;;;;;;;2.35;0.60;;;11.10;99.90;;;;;;4859617;29;20041;-65
2023/12/18 04:53:43;;;;;;;2.53;0.45;;;11.10;99.90;;;;;;4865610;29;20075;-64
2023/12/18 04:56:11;;;;;;;3.28;0.88;;;11.20;99.90;;;;;;4867860;29;20429;-72
2023/12/18 04:58:39;;;;;;;1.35;0.47;;;11.20;99.90;;;;;;4859739;29;20049;-67
2023/12/18 05:01:06;;;;;;;2.97;0.55;;;11.20;99.90;;;;;;4868085;29;20049;-68
2023/12/18 05:03:34;;;;;;;2.78;0.63;;;11.20;99.90;;;;;;4877146;29;20064;-67
2023/12/18 05:06:20;;;;;;;5.15;0.55;;;11.20;99.90;;;;;;4875633;29;20045;-70
2023/12/18 05:08:49;;;;;;;0.98;0.28;;;11.20;99.90;;;;;;4845404;29;20421;-69
2023/12/18 05:11:18;;;;;;;3.70;0.65;;;11.20;99.90;;;;;;4861430;29;20057;-71
2023/12/18 05:13:46;;;;;;;1.15;0.35;;;11.20;99.90;;;;;;4860975;29;20049;-72
2023/12/18 05:16:16;;;;;;;2.70;0.40;;;11.20;99.90;;;;;;4868706;29;20060;-71
2023/12/18 05:18:44;;;;;;;5.93;0.85;;;11.20;99.90;;;;;;4868253;29;20053;-70
2023/12/18 05:21:12;;;;;;;1.55;0.45;;;11.20;99.90;;;;;;4878344;29;20041;-69
2023/12/18 05:23:40;;;;;;;1.83;0.50;;;11.20;99.90;;;;;;4874474;29;20517;-71
2023/12/18 05:26:08;;;;;;;2.58;0.50;;;11.20;99.90;;;;;;4862232;29;20046;-60
2023/12/18 05:28:36;;;;;;;0.80;0.28;;;11.30;99.90;;;;;;4862615;29;20056;-61
2023/12/18 05:31:04;;;;;;;1.63;0.32;;;11.30;99.90;;;;;;4879686;29;20061;-66
2023/12/18 05:33:32;;;;;;;2.42;0.40;;;11.30;99.90;;;;;;4863891;29;20057;-66
2023/12/18 05:36:00;;;;;;;2.70;0.40;;;11.30;99.90;;;;;;4860936;29;20127;-62
2023/12/18 05:38:27;;;;;;;1.83;0.30;;;11.30;99.90;;;;;;4879590;29;20049;-62
2023/12/18 05:40:55;;;;;;;1.35;0.30;;;11.30;99.90;;;;;;4879792;29;20045;-64
2023/12/18 05:43:23;;;;;;;0.25;0.25;;;11.30;99.90;;;;;;4861939;29;20113;-67
2023/12/18 05:45:50;;;;;;;0.20;0.20;;;11.30;99.90;;;;;;4862979;29;20077;-66
2023/12/18 05:48:18;;;;;;;0.90;0.38;;;11.30;99.90;;;;;;4864155;29;20052;-69
2023/12/18 05:50:46;;;;;;;1.95;0.25;;;11.30;99.90;;;;;;4857878;29;20050;-67
2023/12/18 05:53:14;;;;;;;0.70;0.28;;;11.30;99.90;;;;;;4857541;29;20398;-71
2023/12/18 05:55:42;;;;;;;0.35;0.20;;;11.30;99.90;;;;;;4862292;29;20061;-71
2023/12/18 05:58:10;;;;;;;1.55;0.52;;;11.20;99.90;;;;;;4860366;29;20210;-71
2023/12/18 06:00:38;;;;;;;2.22;0.30;;;11.30;99.90;;;;;;4857281;29;20054;-62
2023/12/18 06:03:06;;;;;;;1.77;0.30;;;11.30;99.90;;;;;;4856719;29;20259;-65
2023/12/18 06:05:34;;;;;;;0.93;0.50;;;11.30;99.90;;;;;;4853943;29;20057;-70
2023/12/18 06:08:03;;;;;;;0.85;0.20;;;11.30;99.90;;;;;;4868525;29;20056;-70
2023/12/18 06:10:31;;;;;;;0.55;0.20;;;11.30;99.90;;;;;;4872497;29;20076;-64
2023/12/18 06:13:00;;;;;;;0.32;0.10;;;11.30;99.90;;;;;;4839312;29;20342;-61
2023/12/18 06:15:28;;;;;;;0.20;0.20;;;11.30;99.90;;;;;;4854321;29;20068;-62
2023/12/18 06:17:56;;;;;;;1.42;0.20;;;11.30;99.90;;;;;;4860847;29;20074;-61
2023/12/18 06:20:24;;;;;;;1.55;0.20;;;11.30;99.90;;;;;;4853984;29;20057;-68
2023/12/18 06:22:52;;;;;;;1.38;0.55;;;11.30;99.90;;;;;;4864002;29;20064;-60
2023/12/18 06:25:20;;;;;;;1.23;0.30;;;11.30;99.90;;;;;;4875298;29;20072;-62
2023/12/18 06:27:48;;;;;;;1.42;0.20;;;11.30;99.90;;;;;;4858304;29;20056;-67
2023/12/18 06:30:16;;;;;;;0.43;0.10;;;11.30;99.90;;;;;;4856357;29;20057;-69
2023/12/18 06:32:44;;;;;;;0.22;0.20;;;11.30;99.90;;;;;;4853248;29;20049;-71
2023/12/18 06:35:13;;;;;;;0.80;0.20;;;11.30;99.90;;;;;;4853835;29;20562;-69
2023/12/18 06:37:42;;;;;;;4.28;0.20;;;11.30;99.90;;;;;;4867596;29;20422;-60
2023/12/18 06:40:11;;;;;;;0.28;0.10;;;11.30;99.90;;;;;;4854314;29;20076;-63
2023/12/18 06:42:39;;;;;;;2.25;0.20;;;11.30;99.90;;;;;;4862887;29;20413;-60
2023/12/18 06:45:07;;;;;;;0.13;0.10;;;11.30;99.90;;;;;;4874951;29;20060;-63
2023/12/18 06:47:35;;;;;;;0.60;0.30;;;11.30;99.90;;;;;;4864787;29;20065;-60
2023/12/18 06:50:03;;;;;;;0.45;0.10;;;11.30;99.90;;;;;;4856280;29;20061;-60
2023/12/18 06:52:31;;;;;;;0.10;0.10;;;11.30;99.90;;;;;;4862130;29;20045;-60
2023/12/18 06:54:59;;;;;;;0.22;0.10;;;11.30;99.90;;;;;;4874478;29;20057;-60
2023/12/18 06:57:26;;;;;;;1.27;0.57;;;11.30;99.90;;;;;;4869801;29;20056;-60
2023/12/18 06:59:55;;;;;;;0.73;0.10;;;11.40;99.90;;;;;;4872024;29;20061;-60
2023/12/18 07:02:26;;;;;;;0.35;0.10;;;11.30;99.90;;;;;;4871886;29;20951;-60
2023/12/18 07:04:54;;;;;;;0.20;0.20;;;11.40;99.90;;;;;;4855487;29;20498;-61
2023/12/18 07:07:25;;;;;;;1.27;0.08;;;11.40;99.90;;;;;;4860316;29;20038;-60
2023/12/18 07:09:54;;;;;;;0.52;0.10;;;11.30;99.90;;;;;;4865000;29;20076;-61
2023/12/18 07:12:22;;;;;;;2.22;0.10;;;11.30;99.90;;;;;;4874632;29;20056;-63
2023/12/18 07:14:49;;;;;;;0.55;0.17;;;11.30;99.90;;;;;;4874827;29;20049;-64
2023/12/18 07:17:17;;;;;;;4.03;0.10;;;11.30;99.90;;;;;;4859698;29;20516;-64
2023/12/18 07:19:45;;;;;;;0.85;0.10;;;11.30;99.90;;;;;;4856556;29;20056;-62
2023/12/18 07:22:13;;;;;;;0.40;0.10;;;11.30;99.90;;;;;;4857995;29;20045;-64
2023/12/18 07:24:41;;;;;;;0.28;0.17;;;11.40;99.90;;;;;;4863358;29;20053;-61
2023/12/18 07:27:09;;;;;;;0.60;0.10;;;11.40;99.90;;;;;;4858006;29;20728;-65
2023/12/18 07:29:42;;;;;;;0.20;0.10;;;11.40;99.90;;;;;;4870023;29;20242;-60
2023/12/18 07:32:09;;;;;;;1.75;0.28;;;11.40;99.90;;;;;;4863386;29;20041;-61
2023/12/18 07:34:37;;;;;;;1.65;0.10;;;11.40;99.90;;;;;;4863024;29;20053;-60
2023/12/18 07:37:06;;;;;;;0.55;0.08;;;11.40;99.90;;;;;;4863949;29;20082;-66
2023/12/18 07:39:34;;;;;;;0.60;0.10;;;11.40;99.90;;;;;;4856257;29;20050;-60
2023/12/18 07:42:01;;;;;;;0.38;0.10;;;11.40;99.90;;;;;;4874454;29;20049;-61
2023/12/18 07:44:29;;;;;;;1.55;0.43;;;11.40;99.90;;;;;;4865248;29;20053;-61
2023/12/18 07:46:57;;;;;;;0.52;0.10;;;11.40;99.90;;;;;;4855738;29;20057;-61
2023/12/18 07:49:25;;;;;;;1.00;0.10;;;11.40;99.90;;;;;;4856685;29;20045;-60
2023/12/18 07:51:53;;;;;;;1.02;0.10;;;11.40;99.90;;;;;;4858536;29;20339;-62
2023/12/18 07:54:20;;;;;;;1.25;0.20;;;11.40;99.90;;;;;;4860558;29;20057;-59
2023/12/18 07:56:49;;;;;;;1.75;0.20;;;11.40;99.90;;;;;;4860479;29;20056;-63
2023/12/18 07:59:17;;;;;;;2.13;0.10;;;11.40;99.90;;;;;;4867930;29;20049;-62
2023/12/18 08:01:46;;;;;;;0.55;0.25;;;11.40;99.90;;;;;;4857452;29;20057;-62
2023/12/18 08:04:14;;;;;;;2.05;0.10;;;11.40;99.90;;;;;;4851234;29;20478;-63
2023/12/18 08:06:42;;;;;;;0.22;0.10;;;11.40;99.90;;;;;;4868525;29;20057;-67
2023/12/18 08:09:11;;;;;;;0.15;0.10;;;11.40;99.90;;;;;;4870839;29;20049;-62
2023/12/18 08:11:39;;;;;;;0.40;0.10;;;11.30;99.90;;;;;;4871316;29;20057;-62
2023/12/18 08:14:07;;;;;;;0.15;0.10;;;11.40;99.90;;;;;;4865497;29;20056;-61
2023/12/18 08:16:36;;;;;;;0.13;0.13;;;11.30;99.90;;;;;;4873754;29;20211;-68
2023/12/18 08:19:04;;;;;;;0.10;0.10;;;11.30;99.90;;;;;;4872832;29;20057;-61
2023/12/18 08:21:32;;;;;;;0.10;0.10;;;11.30;99.90;;;;;;4872281;29;20057;-63
2023/12/18 08:24:00;;;;;;;1.23;0.10;;;11.30;99.90;;;;;;4861968;29;20528;-62
2023/12/18 08:26:28;;;;;;;1.25;0.20;;;11.40;99.90;;;;;;4857571;29;20056;-61
2023/12/18 08:28:57;;;;;;;0.03;0.00;;;11.30;99.90;;;;;;4857167;29;20552;-61
2023/12/18 08:31:25;;;;;;;0.32;0.03;;;11.30;99.90;;;;;;4839016;29;20057;-61
2023/12/18 08:33:53;;;;;;;0.55;0.10;;;11.30;99.90;;;;;;4859465;29;20692;-70
2023/12/18 08:36:21;;;;;;;0.45;0.10;;;11.40;99.90;;;;;;4875531;29;20061;-61
2023/12/18 08:38:50;;;;;;;0.85;0.10;;;11.30;99.90;;;;;;4870380;29;20049;-60
2023/12/18 08:41:18;;;;;;;1.33;0.00;;;11.40;99.90;;;;;;4860410;29;20520;-61
2023/12/18 08:43:45;;;;;;;0.17;0.10;;;11.40;99.90;;;;;;4872806;29;20045;-62
2023/12/18 08:46:29;;;;;;;1.80;0.63;;;11.40;99.90;;;;;;4862831;29;20041;-62
2023/12/18 08:48:57;;;;;;;0.95;0.08;;;11.40;99.90;;;;;;4863468;29;20054;-60
2023/12/18 08:51:25;;;;;;;2.60;0.32;;;11.40;99.90;;;;;;4866733;29;20079;-61
2023/12/18 08:53:54;;;;;;;0.17;0.17;;;11.40;99.90;;;;;;4871353;29;20071;-71
2023/12/18 08:56:24;;;;;;;0.40;0.25;;;11.50;99.90;;;;;;4877052;29;20060;-61
2023/12/18 08:58:52;;;;;;;0.30;0.28;;;11.50;99.90;;;;;;4865180;29;20084;-71
2023/12/18 09:01:20;;;;;;;1.05;0.15;;;11.50;99.90;;;;;;4860788;29;20045;-60
2023/12/18 09:03:51;;;;;;;0.10;0.10;;;11.50;99.90;;;;;;4865320;29;20061;-62
2023/12/18 09:06:19;;;;;;;0.10;0.10;;;11.50;99.90;;;;;;4857672;29;20049;-63
2023/12/18 09:08:47;;;;;;;0.65;0.10;;;11.50;99.90;;;;;;4864196;29;20044;-62
2023/12/18 09:11:16;;;;;;;0.10;0.10;;;11.50;99.90;;;;;;4864942;29;20060;-62
2023/12/18 09:13:43;;;;;;;0.28;0.28;;;11.60;99.90;;;;;;4858217;29;20038;-61
2023/12/18 09:16:12;;;;;;;0.20;0.20;;;11.60;99.90;;;;;;4863389;29;20045;-61
2023/12/18 09:18:40;;;;;;;1.23;0.30;;;11.60;99.90;;;;;;4880936;29;20073;-61
2023/12/18 09:21:08;;;;;;;1.15;0.30;;;11.60;99.90;;;;;;4860937;29;20061;-63
2023/12/18 09:23:36;;;;;;;0.40;0.38;;;11.70;99.90;;;;;;4870744;29;20484;-62
2023/12/18 09:26:04;;;;;;;0.20;0.20;;;11.70;99.90;;;;;;4867721;29;20060;-61
2023/12/18 09:28:32;;;;;;;1.08;0.38;;;11.70;99.90;;;;;;4867315;29;20052;-62
2023/12/18 09:31:00;;;;;;;1.13;0.50;;;11.70;99.90;;;;;;4874791;29;20057;-69
2023/12/18 09:33:28;;;;;;;0.82;0.30;;;11.70;99.90;;;;;;4867513;29;20049;-64
2023/12/18 09:35:57;;;;;;;0.43;0.22;;;11.70;99.90;;;;;;4864584;29;20422;-64
2023/12/18 09:38:26;;;;;;;0.55;0.17;;;11.70;99.90;;;;;;4861179;29;20049;-62
2023/12/18 09:40:54;;;;;;;0.30;0.30;;;11.80;99.90;;;;;;4866551;29;20501;-60
2023/12/18 09:43:23;;;;;;;0.55;0.10;;;11.80;99.90;;;;;;4868306;29;20053;-61
2023/12/18 09:45:51;;;;;;;0.38;0.10;;;11.80;99.90;;;;;;4871391;29;20076;-68
2023/12/18 09:48:19;;;;;;;0.40;0.10;;;11.80;99.90;;;;;;4867473;29;20057;-66
2023/12/18 09:50:48;;;;;;;0.35;0.10;;;11.80;99.90;;;;;;4872824;29;20072;-65
2023/12/18 09:53:20;;;;;;;3.63;0.20;;;11.80;99.90;;;;;;4870360;29;20064;-68
2023/12/18 09:55:51;;;;;;;0.00;0.00;;;11.90;99.90;;;;;;4860665;29;20088;-61
2023/12/18 09:58:21;;;;;;;0.10;0.10;;;11.90;99.90;;;;;;4865508;29;20482;-64
2023/12/18 10:00:50;;;;;;;0.00;0.00;;;11.90;99.90;;;;;;4857211;29;20068;-71
2023/12/18 10:03:18;;;;;;;0.47;0.10;;;11.90;99.90;;;;;;4866509;29;20191;-61
2023/12/18 10:05:47;;;;;;;0.10;0.10;;;11.90;99.90;;;;;;4869174;29;20049;-60
2023/12/18 10:08:15;;;;;;;0.50;0.10;;;11.90;99.90;;;;;;4864516;29;20052;-61
2023/12/18 10:10:43;;;;;;;0.10;0.10;;;11.90;99.90;;;;;;4875164;29;20064;-60
2023/12/18 10:13:13;;;;;;;0.43;0.20;;;11.90;99.90;;;;;;4872822;29;20059;-61
2023/12/18 10:15:42;;;;;;;1.17;0.15;;;12.00;99.90;;;;;;4873177;29;20045;-61
2023/12/18 10:18:10;;;;;;;0.75;0.20;;;12.00;99.90;;;;;;4869181;29;20057;-61
2023/12/18 10:20:39;;;;;;;0.28;0.20;;;12.00;99.90;;;;;;4871679;29;20049;-61
2023/12/18 10:23:07;;;;;;;0.35;0.13;;;12.00;99.90;;;;;;4863397;29;20561;-60
2023/12/18 10:25:36;;;;;;;0.30;0.10;;;12.00;99.90;;;;;;4860587;29;20049;-61
2023/12/18 10:28:06;;;;;;;0.28;0.10;;;12.00;99.90;;;;;;4867786;29;20053;-61
2023/12/18 10:30:36;;;;;;;0.10;0.10;;;12.00;99.90;;;;;;4865045;29;20037;-60
2023/12/18 10:33:09;;;;;;;0.43;0.10;;;12.00;99.90;;;;;;4870406;29;20049;-61
2023/12/18 10:35:39;;;;;;;0.75;0.20;;;12.00;99.90;;;;;;4869882;29;20052;-63
2023/12/18 10:38:09;;;;;;;0.80;0.30;;;12.00;99.90;;;;;;4863165;29;20070;-63
2023/12/18 10:40:37;;;;;;;0.65;0.20;;;12.10;99.90;;;;;;4864994;29;20049;-63
2023/12/18 10:43:12;;;;;;;0.35;0.20;;;12.10;99.90;;;;;;4874041;29;20049;-64
2023/12/18 10:45:42;;;;;;;0.10;0.10;;;12.10;99.90;;;;;;4868347;29;20165;-61
2023/12/18 10:48:12;;;;;;;0.17;0.17;;;12.10;99.90;;;;;;4865048;29;20049;-61
2023/12/18 10:50:42;;;;;;;1.00;0.20;;;12.10;99.90;;;;;;4869452;29;20501;-60
2023/12/18 10:53:11;;;;;;;0.28;0.15;;;12.20;99.90;;;;;;4854941;29;20426;-61
2023/12/18 10:55:40;;;;;;;2.42;0.22;;;12.20;99.90;;;;;;4864921;29;20042;-61
2023/12/18 10:58:10;;;;;;;2.30;0.35;;;12.20;99.90;;;;;;4866556;29;20056;-61
2023/12/18 11:00:39;;;;;;;0.65;0.30;;;12.20;99.90;;;;;;4872384;29;20064;-62
2023/12/18 11:03:09;;;;;;;0.65;0.32;;;12.20;99.90;;;;;;4862981;29;20065;-65
2023/12/18 11:05:40;;;;;;;0.50;0.30;;;12.30;99.90;;;;;;4869392;29;20049;-61
2023/12/18 11:08:10;;;;;;;0.50;0.20;;;12.30;99.90;;;;;;4860104;29;20045;-60
2023/12/18 11:10:38;;;;;;;0.80;0.40;;;12.30;99.90;;;;;;4862279;29;20045;-60
2023/12/18 11:13:29;;;;;;;0.77;0.30;;;12.30;99.90;;;;;;4870921;29;20609;-61
2023/12/18 11:16:31;;;;;;;0.17;0.10;;;12.40;99.90;;;;;;4863807;29;20075;-61
2023/12/18 11:19:10;;;;;;;0.25;0.20;;;12.40;99.90;;;;;;4859291;29;20052;-60
2023/12/18 11:21:49;;;;;;;1.85;0.30;;;12.40;99.90;;;;;;4860724;29;20050;-60
2023/12/18 11:24:17;;;;;;;0.22;0.10;;;12.40;99.90;;;;;;4863022;29;20052;-60
2023/12/18 11:26:46;;;;;;;0.82;0.10;;;12.50;99.90;;;;;;4857754;29;20069;-60
2023/12/18 11:29:33;;;;;;;;;;;12.50;99.90;;;;;;4869931;29;20052;-62
2023/12/18 11:32:01;;;;;;;1.83;0.10;;;12.50;99.90;;;;;;4865932;29;19931;-61
2023/12/18 11:34:29;;;;;;;0.08;0.03;;;12.50;99.90;;;;;;4860292;29;20072;-61
2023/12/18 11:36:58;;;;;;;0.10;0.10;;;12.50;99.90;;;;;;4856913;29;20060;-61
2023/12/18 11:39:39;;;;;;;1.45;0.10;;;12.60;99.90;;;;;;4856709;29;20049;-61
2023/12/18 11:42:10;;;;;;;0.20;0.10;;;12.60;99.90;;;;;;4858728;29;20064;-61
2023/12/18 11:44:39;;;;;;;3.42;0.10;;;12.60;99.90;;;;;;4869018;29;20041;-65
2023/12/18 11:47:07;;;;;;;0.45;0.20;;;12.60;99.90;;;;;;4856254;29;20049;-61
2023/12/18 11:49:36;;;;;;;0.15;0.03;;;12.60;99.90;;;;;;4859266;29;20064;-61
2023/12/18 11:52:19;;;;;;;1.55;0.20;;;12.60;99.90;;;;;;4866386;29;20068;-60
2023/12/18 11:54:48;;;;;;;0.77;0.20;;;12.60;99.90;;;;;;4867242;29;20398;-61
2023/12/18 11:57:21;;;;;;;0.20;0.10;;;12.50;99.90;;;;;;4868127;29;20051;-62
2023/12/18 11:59:49;;;;;;;0.57;0.30;;;12.60;99.90;;;;;;4861354;29;20072;-62
2023/12/18 12:02:19;;;;;;;0.10;0.10;;;12.60;99.90;;;;;;4865553;29;20410;-61
2023/12/18 12:04:47;;;;;;;0.90;0.20;;;12.60;99.90;;;;;;4861038;29;20045;-63
2023/12/18 12:07:15;;;;;;;0.73;0.20;;;12.60;99.90;;;;;;4872826;29;20076;-60
2023/12/18 12:09:43;;;;;;;1.40;0.10;;;12.60;99.90;;;;;;4864374;29;20065;-61
2023/12/18 12:12:13;;;;;;;0.13;0.10;;;12.60;99.90;;;;;;4859395;29;20052;-61
2023/12/18 12:14:41;;;;;;;0.25;0.20;;;12.60;99.90;;;;;;4866381;29;20065;-61
2023/12/18 12:17:10;;;;;;;1.17;0.22;;;12.60;99.90;;;;;;4860222;29;20053;-61
2023/12/18 12:19:38;;;;;;;0.50;0.30;;;12.70;99.90;;;;;;4872395;29;20057;-62
2023/12/18 12:22:06;;;;;;;0.17;0.15;;;12.70;99.90;;;;;;4870870;29;20054;-62
2023/12/18 12:24:37;;;;;;;0.77;0.20;;;12.70;99.90;;;;;;4873178;29;20409;-62
2023/12/18 12:27:08;;;;;;;2.28;0.20;;;12.70;99.90;;;;;;4870499;29;20442;-64
2023/12/18 12:29:36;;;;;;;0.65;0.20;;;12.60;99.90;;;;;;4874212;29;20397;-63
2023/12/18 12:32:05;;;;;;;0.25;0.10;;;12.60;99.90;;;;;;4874119;29;20048;-61
2023/12/18 12:34:41;;;;;;;1.10;0.20;;;12.70;99.90;;;;;;4872599;29;20525;-61
2023/12/18 12:37:12;;;;;;;1.23;0.30;;;12.60;99.90;;;;;;4872649;29;20551;-60
2023/12/18 12:40:02;;;;;;;0.20;0.20;;;12.60;99.90;;;;;;4868870;29;20541;-61
2023/12/18 12:42:32;;;;;;;1.17;0.30;;;12.70;99.90;;;;;;4865008;29;20045;-61
2023/12/18 12:45:04;;;;;;;0.68;0.20;;;12.60;99.90;;;;;;4871823;29;20489;-61
2023/12/18 12:47:34;;;;;;;2.63;0.45;;;12.70;99.90;;;;;;4851692;29;20053;-60
2023/12/18 12:50:04;;;;;;;0.30;0.10;;;12.60;99.90;;;;;;4864865;29;20405;-60
2023/12/18 12:52:37;;;;;;;0.35;0.15;;;12.60;99.90;;;;;;4864326;29;20060;-61
2023/12/18 12:55:05;;;;;;;1.98;0.28;;;12.70;99.90;;;;;;4858103;29;20068;-62